sensor_id;sensor_type;location;lat;lon;timestamp;P1;durP1;ratioP1;P2;durP2;ratioP2
78004;SDS011;67209;51.698;-0.292;2023-06-14T00:00:36;242.68;;;140.00;;
78004;SDS011;67209;51.698;-0.292;2023-06-14T00:03:06;244.30;;;139.18;;
78004;SDS011;67209;51.698;-0.292;2023-06-14T00:05:33;214.32;;;128.73;;
78004;SDS011;67209;51.698;-0.292;2023-06-14T00:08:03;196.85;;;120.53;;
78004;SDS011;67209;51.698;-0.292;2023-06-14T00:10:32;224.18;;;127.43;;
78004;SDS011;67209;51.698;-0.292;2023-06-14T00:13:00;239.57;;;136.40;;
78004;SDS011;67209;51.698;-0.292;2023-06-14T00:15:26;207.70;;;126.30;;
78004;SDS011;67209;51.698;-0.292;2023-06-14T00:17:53;250.25;;;141.75;;
78004;SDS011;67209;51.698;-0.292;2023-06-14T00:20:19;280.45;;;157.82;;
78004;SDS011;67209;51.698;-0.292;2023-06-14T00:22:46;291.63;;;167.07;;
78004;SDS011;67209;51.698;-0.292;2023-06-14T00:25:13;312.48;;;180.32;;
78004;SDS011;67209;51.698;-0.292;2023-06-14T00:27:39;316.70;;;179.73;;
78004;SDS011;67209;51.698;-0.292;2023-06-14T00:30:05;279.27;;;163.95;;
78004;SDS011;67209;51.698;-0.292;2023-06-14T00:32:31;277.17;;;155.60;;
78004;SDS011;67209;51.698;-0.292;2023-06-14T00:34:57;305.83;;;175.80;;
78004;SDS011;67209;51.698;-0.292;2023-06-14T00:37:23;318.20;;;180.05;;
78004;SDS011;67209;51.698;-0.292;2023-06-14T00:39:49;324.00;;;184.10;;
78004;SDS011;67209;51.698;-0.292;2023-06-14T00:42:25;353.90;;;203.80;;
78004;SDS011;67209;51.698;-0.292;2023-06-14T00:44:51;400.92;;;230.07;;
78004;SDS011;67209;51.698;-0.292;2023-06-14T00:47:17;361.70;;;206.18;;
78004;SDS011;67209;51.698;-0.292;2023-06-14T00:49:47;350.88;;;204.65;;
78004;SDS011;67209;51.698;-0.292;2023-06-14T00:52:14;321.13;;;185.02;;
78004;SDS011;67209;51.698;-0.292;2023-06-14T00:54:41;314.30;;;178.20;;
78004;SDS011;67209;51.698;-0.292;2023-06-14T00:57:08;330.15;;;191.70;;
78004;SDS011;67209;51.698;-0.292;2023-06-14T00:59:45;370.17;;;207.35;;
78004;SDS011;67209;51.698;-0.292;2023-06-14T01:02:11;347.42;;;198.23;;
78004;SDS011;67209;51.698;-0.292;2023-06-14T01:04:39;412.08;;;236.75;;
78004;SDS011;67209;51.698;-0.292;2023-06-14T01:07:21;404.25;;;230.30;;
78004;SDS011;67209;51.698;-0.292;2023-06-14T01:12:24;358.27;;;208.55;;
78004;SDS011;67209;51.698;-0.292;2023-06-14T01:14:50;425.50;;;245.07;;
78004;SDS011;67209;51.698;-0.292;2023-06-14T01:17:17;332.58;;;193.20;;
78004;SDS011;67209;51.698;-0.292;2023-06-14T01:19:43;351.38;;;204.07;;
78004;SDS011;67209;51.698;-0.292;2023-06-14T01:22:10;343.00;;;199.75;;
78004;SDS011;67209;51.698;-0.292;2023-06-14T01:24:36;398.15;;;229.73;;
78004;SDS011;67209;51.698;-0.292;2023-06-14T01:27:04;420.48;;;240.38;;
78004;SDS011;67209;51.698;-0.292;2023-06-14T01:29:32;417.27;;;244.27;;
78004;SDS011;67209;51.698;-0.292;2023-06-14T01:32:01;429.63;;;246.20;;
78004;SDS011;67209;51.698;-0.292;2023-06-14T01:34:27;417.70;;;241.10;;
78004;SDS011;67209;51.698;-0.292;2023-06-14T01:36:53;427.20;;;248.23;;
78004;SDS011;67209;51.698;-0.292;2023-06-14T01:39:20;391.52;;;229.77;;
78004;SDS011;67209;51.698;-0.292;2023-06-14T01:41:46;444.35;;;256.65;;
78004;SDS011;67209;51.698;-0.292;2023-06-14T01:44:14;459.30;;;265.25;;
78004;SDS011;67209;51.698;-0.292;2023-06-14T01:46:40;456.13;;;267.65;;
78004;SDS011;67209;51.698;-0.292;2023-06-14T01:49:07;447.17;;;257.63;;
78004;SDS011;67209;51.698;-0.292;2023-06-14T01:51:33;472.20;;;273.45;;
78004;SDS011;67209;51.698;-0.292;2023-06-14T01:54:00;457.88;;;262.90;;
78004;SDS011;67209;51.698;-0.292;2023-06-14T01:56:26;464.40;;;261.02;;
78004;SDS011;67209;51.698;-0.292;2023-06-14T01:58:52;473.52;;;277.20;;
78004;SDS011;67209;51.698;-0.292;2023-06-14T02:01:19;478.40;;;283.40;;
78004;SDS011;67209;51.698;-0.292;2023-06-14T02:03:46;485.48;;;287.80;;
78004;SDS011;67209;51.698;-0.292;2023-06-14T02:06:14;491.70;;;288.48;;
78004;SDS011;67209;51.698;-0.292;2023-06-14T02:08:41;421.45;;;248.48;;
78004;SDS011;67209;51.698;-0.292;2023-06-14T02:11:07;484.88;;;283.27;;
78004;SDS011;67209;51.698;-0.292;2023-06-14T02:13:33;412.58;;;239.63;;
78004;SDS011;67209;51.698;-0.292;2023-06-14T02:16:00;388.80;;;231.98;;
78004;SDS011;67209;51.698;-0.292;2023-06-14T02:18:26;388.48;;;230.93;;
78004;SDS011;67209;51.698;-0.292;2023-06-14T02:20:52;430.95;;;247.07;;
78004;SDS011;67209;51.698;-0.292;2023-06-14T02:23:18;439.52;;;258.45;;
78004;SDS011;67209;51.698;-0.292;2023-06-14T02:25:44;474.90;;;278.85;;
78004;SDS011;67209;51.698;-0.292;2023-06-14T02:28:11;455.63;;;267.15;;
78004;SDS011;67209;51.698;-0.292;2023-06-14T02:30:37;474.63;;;279.77;;
78004;SDS011;67209;51.698;-0.292;2023-06-14T02:33:03;512.10;;;307.17;;
78004;SDS011;67209;51.698;-0.292;2023-06-14T02:35:30;490.30;;;289.52;;
78004;SDS011;67209;51.698;-0.292;2023-06-14T02:37:56;481.80;;;291.60;;
78004;SDS011;67209;51.698;-0.292;2023-06-14T02:40:22;520.33;;;315.95;;
78004;SDS011;67209;51.698;-0.292;2023-06-14T02:42:48;526.38;;;320.08;;
78004;SDS011;67209;51.698;-0.292;2023-06-14T02:45:14;500.73;;;303.75;;
78004;SDS011;67209;51.698;-0.292;2023-06-14T02:47:40;532.40;;;323.75;;
78004;SDS011;67209;51.698;-0.292;2023-06-14T02:50:07;557.53;;;338.80;;
